Terminal Aerodrome Forecast
Issued by NWS

Home | Current Version | Previous Version | Text Only | Print | Product List | Glossary Off
Versions: 1 2 3 4 5 6 7 8 9 10 11 12 13 14 15

859
FTUS43 KICT 081722
TAFRSL
TAF
KRSL 081722Z 0818/0918 33028G38KT P6SM SKC
     FM090100 32016G24KT P6SM SCT250
     FM091100 30009KT P6SM SCT090
     FM091200 30009KT P6SM SCT090 BKN150=

USA.gov is the U.S. government's official web portal to all federal, state and local government web resources and services.